sensor_id;sensor_type;location;lat;lon;timestamp;P1;durP1;ratioP1;P2;durP2;ratioP2
22963;SDS011;11648;49.306;6.934;2023-03-01T00:01:06;10.10;;;6.70;;
22963;SDS011;11648;49.306;6.934;2023-03-01T00:03:36;10.83;;;6.20;;
22963;SDS011;11648;49.306;6.934;2023-03-01T00:06:04;9.83;;;6.40;;
22963;SDS011;11648;49.306;6.934;2023-03-01T00:08:31;9.23;;;6.53;;
22963;SDS011;11648;49.306;6.934;2023-03-01T00:11:03;10.53;;;6.87;;
22963;SDS011;11648;49.306;6.934;2023-03-01T00:13:36;11.50;;;6.80;;
22963;SDS011;11648;49.306;6.934;2023-03-01T00:16:04;12.23;;;6.73;;
22963;SDS011;11648;49.306;6.934;2023-03-01T00:18:32;11.67;;;7.10;;
22963;SDS011;11648;49.306;6.934;2023-03-01T00:20:59;12.40;;;7.20;;
22963;SDS011;11648;49.306;6.934;2023-03-01T00:23:26;11.70;;;6.90;;
22963;SDS011;11648;49.306;6.934;2023-03-01T00:25:53;11.73;;;6.97;;
22963;SDS011;11648;49.306;6.934;2023-03-01T00:28:20;10.97;;;6.73;;
22963;SDS011;11648;49.306;6.934;2023-03-01T00:30:47;10.47;;;6.90;;
22963;SDS011;11648;49.306;6.934;2023-03-01T00:33:14;9.90;;;6.77;;
22963;SDS011;11648;49.306;6.934;2023-03-01T00:35:41;12.43;;;7.33;;
22963;SDS011;11648;49.306;6.934;2023-03-01T00:38:08;10.00;;;6.20;;
22963;SDS011;11648;49.306;6.934;2023-03-01T00:40:35;10.63;;;7.13;;
22963;SDS011;11648;49.306;6.934;2023-03-01T00:43:03;10.40;;;7.07;;
22963;SDS011;11648;49.306;6.934;2023-03-01T00:45:30;9.70;;;6.50;;
22963;SDS011;11648;49.306;6.934;2023-03-01T00:47:59;11.47;;;7.10;;
22963;SDS011;11648;49.306;6.934;2023-03-01T00:50:26;10.37;;;6.40;;
22963;SDS011;11648;49.306;6.934;2023-03-01T00:52:56;10.77;;;6.80;;
22963;SDS011;11648;49.306;6.934;2023-03-01T00:55:23;11.00;;;6.97;;
22963;SDS011;11648;49.306;6.934;2023-03-01T00:57:50;12.30;;;7.07;;
22963;SDS011;11648;49.306;6.934;2023-03-01T01:00:17;9.57;;;6.30;;
22963;SDS011;11648;49.306;6.934;2023-03-01T01:02:46;10.87;;;6.93;;
22963;SDS011;11648;49.306;6.934;2023-03-01T01:05:14;8.80;;;6.30;;
22963;SDS011;11648;49.306;6.934;2023-03-01T01:07:41;10.40;;;7.20;;
22963;SDS011;11648;49.306;6.934;2023-03-01T01:10:08;10.93;;;6.67;;
22963;SDS011;11648;49.306;6.934;2023-03-01T01:12:39;10.60;;;6.83;;
22963;SDS011;11648;49.306;6.934;2023-03-01T01:15:05;10.23;;;6.90;;
22963;SDS011;11648;49.306;6.934;2023-03-01T01:17:33;11.80;;;6.70;;
22963;SDS011;11648;49.306;6.934;2023-03-01T01:20:01;9.93;;;6.10;;
22963;SDS011;11648;49.306;6.934;2023-03-01T01:22:28;11.27;;;6.60;;
22963;SDS011;11648;49.306;6.934;2023-03-01T01:24:55;11.77;;;7.27;;
22963;SDS011;11648;49.306;6.934;2023-03-01T01:27:21;10.60;;;6.80;;
22963;SDS011;11648;49.306;6.934;2023-03-01T01:29:48;11.53;;;7.17;;
22963;SDS011;11648;49.306;6.934;2023-03-01T01:32:15;11.63;;;7.30;;
22963;SDS011;11648;49.306;6.934;2023-03-01T01:34:42;10.80;;;6.83;;
22963;SDS011;11648;49.306;6.934;2023-03-01T01:37:08;11.50;;;7.27;;
22963;SDS011;11648;49.306;6.934;2023-03-01T01:39:35;9.73;;;6.73;;
22963;SDS011;11648;49.306;6.934;2023-03-01T01:42:02;11.57;;;7.17;;
22963;SDS011;11648;49.306;6.934;2023-03-01T01:44:29;12.40;;;7.40;;
22963;SDS011;11648;49.306;6.934;2023-03-01T01:49:35;11.00;;;7.30;;
22963;SDS011;11648;49.306;6.934;2023-03-01T01:54:56;13.20;;;8.00;;
22963;SDS011;11648;49.306;6.934;2023-03-01T01:57:28;13.07;;;7.47;;
22963;SDS011;11648;49.306;6.934;2023-03-01T02:00:00;11.73;;;7.70;;
22963;SDS011;11648;49.306;6.934;2023-03-01T02:02:40;10.50;;;7.60;;
22963;SDS011;11648;49.306;6.934;2023-03-01T02:05:15;10.63;;;7.30;;
22963;SDS011;11648;49.306;6.934;2023-03-01T02:07:43;11.57;;;7.23;;
22963;SDS011;11648;49.306;6.934;2023-03-01T02:10:11;13.67;;;8.13;;
22963;SDS011;11648;49.306;6.934;2023-03-01T02:12:38;13.77;;;8.37;;
22963;SDS011;11648;49.306;6.934;2023-03-01T02:15:05;11.53;;;7.57;;
22963;SDS011;11648;49.306;6.934;2023-03-01T02:17:32;12.63;;;8.17;;
22963;SDS011;11648;49.306;6.934;2023-03-01T02:20:12;12.43;;;7.40;;
22963;SDS011;11648;49.306;6.934;2023-03-01T02:22:54;11.87;;;8.13;;
22963;SDS011;11648;49.306;6.934;2023-03-01T02:25:32;13.30;;;8.07;;
22963;SDS011;11648;49.306;6.934;2023-03-01T02:30:42;11.53;;;8.00;;
22963;SDS011;11648;49.306;6.934;2023-03-01T02:33:29;13.03;;;8.17;;
22963;SDS011;11648;49.306;6.934;2023-03-01T02:36:03;11.70;;;7.87;;
22963;SDS011;11648;49.306;6.934;2023-03-01T02:38:35;11.80;;;7.77;;
22963;SDS011;11648;49.306;6.934;2023-03-01T02:41:02;12.80;;;8.47;;
22963;SDS011;11648;49.306;6.934;2023-03-01T02:43:31;12.40;;;8.20;;
22963;SDS011;11648;49.306;6.934;2023-03-01T02:46:04;12.77;;;8.10;;
22963;SDS011;11648;49.306;6.934;2023-03-01T02:48:46;11.40;;;7.83;;
22963;SDS011;11648;49.306;6.934;2023-03-01T02:54:07;14.07;;;9.23;;
22963;SDS011;11648;49.306;6.934;2023-03-01T02:56:40;11.80;;;8.53;;
22963;SDS011;11648;49.306;6.934;2023-03-01T02:59:09;15.97;;;8.93;;
22963;SDS011;11648;49.306;6.934;2023-03-01T03:01:37;15.93;;;9.27;;
22963;SDS011;11648;49.306;6.934;2023-03-01T03:04:07;15.10;;;9.03;;
22963;SDS011;11648;49.306;6.934;2023-03-01T03:06:36;15.17;;;9.60;;
22963;SDS011;11648;49.306;6.934;2023-03-01T03:09:04;15.53;;;9.90;;
22963;SDS011;11648;49.306;6.934;2023-03-01T03:11:31;15.57;;;9.33;;
22963;SDS011;11648;49.306;6.934;2023-03-01T03:13:58;14.17;;;9.30;;
22963;SDS011;11648;49.306;6.934;2023-03-01T03:16:25;12.97;;;8.97;;
22963;SDS011;11648;49.306;6.934;2023-03-01T03:18:52;15.83;;;8.77;;
22963;SDS011;11648;49.306;6.934;2023-03-01T03:21:19;19.10;;;9.00;;
22963;SDS011;11648;49.306;6.934;2023-03-01T03:23:45;15.20;;;8.73;;
22963;SDS011;11648;49.306;6.934;2023-03-01T03:26:12;15.40;;;9.57;;
22963;SDS011;11648;49.306;6.934;2023-03-01T03:28:39;14.23;;;9.47;;
22963;SDS011;11648;49.306;6.934;2023-03-01T03:31:07;14.13;;;8.87;;
22963;SDS011;11648;49.306;6.934;2023-03-01T03:33:34;16.10;;;9.90;;
22963;SDS011;11648;49.306;6.934;2023-03-01T03:36:01;17.13;;;9.73;;
22963;SDS011;11648;49.306;6.934;2023-03-01T03:38:28;17.57;;;10.03;;
22963;SDS011;11648;49.306;6.934;2023-03-01T03:41:02;15.40;;;10.00;;
22963;SDS011;11648;49.306;6.934;2023-03-01T03:43:31;16.00;;;9.70;;
22963;SDS011;11648;49.306;6.934;2023-03-01T03:45:59;14.33;;;9.87;;
22963;SDS011;11648;49.306;6.934;2023-03-01T03:48:27;15.53;;;9.17;;
22963;SDS011;11648;49.306;6.934;2023-03-01T03:50:54;13.77;;;8.87;;
22963;SDS011;11648;49.306;6.934;2023-03-01T03:53:23;13.33;;;9.00;;
22963;SDS011;11648;49.306;6.934;2023-03-01T03:55:51;16.57;;;9.50;;
22963;SDS011;11648;49.306;6.934;2023-03-01T03:58:19;14.63;;;9.97;;
22963;SDS011;11648;49.306;6.934;2023-03-01T04:00:49;15.67;;;9.93;;
22963;SDS011;11648;49.306;6.934;2023-03-01T04:03:19;15.47;;;9.90;;
22963;SDS011;11648;49.306;6.934;2023-03-01T04:05:46;15.50;;;9.87;;
22963;SDS011;11648;49.306;6.934;2023-03-01T04:08:13;15.93;;;9.40;;
22963;SDS011;11648;49.306;6.934;2023-03-01T04:10:42;15.67;;;9.50;;
22963;SDS011;11648;49.306;6.934;2023-03-01T04:13:12;16.53;;;9.67;;
22963;SDS011;11648;49.306;6.934;2023-03-01T04:15:40;16.57;;;9.50;;
22963;SDS011;11648;49.306;6.934;2023-03-01T04:18:11;15.50;;;9.53;;
22963;SDS011;11648;49.306;6.934;2023-03-01T04:20:42;15.37;;;10.07;;
22963;SDS011;11648;49.306;6.934;2023-03-01T04:23:15;16.47;;;9.97;;
22963;SDS011;11648;49.306;6.934;2023-03-01T04:25:47;17.77;;;10.17;;
22963;SDS011;11648;49.306;6.934;2023-03-01T04:28:21;15.10;;;9.97;;
22963;SDS011;11648;49.306;6.934;2023-03-01T04:30:51;15.37;;;9.70;;
22963;SDS011;11648;49.306;6.934;2023-03-01T04:33:19;17.53;;;10.73;;
22963;SDS011;11648;49.306;6.934;2023-03-01T04:35:45;17.10;;;10.10;;
22963;SDS011;11648;49.306;6.934;2023-03-01T04:38:19;17.27;;;10.47;;
22963;SDS011;11648;49.306;6.934;2023-03-01T04:40:46;17.23;;;10.57;;
22963;SDS011;11648;49.306;6.934;2023-03-01T04:43:12;16.17;;;9.97;;
22963;SDS011;11648;49.306;6.934;2023-03-01T04:45:40;15.97;;;9.53;;
22963;SDS011;11648;49.306;6.934;2023-03-01T04:48:08;15.90;;;10.17;;
22963;SDS011;11648;49.306;6.934;2023-03-01T04:50:35;14.47;;;9.77;;
22963;SDS011;11648;49.306;6.934;2023-03-01T04:53:02;15.50;;;10.13;;
22963;SDS011;11648;49.306;6.934;2023-03-01T04:55:29;17.83;;;10.57;;
22963;SDS011;11648;49.306;6.934;2023-03-01T04:57:56;14.63;;;9.47;;
22963;SDS011;11648;49.306;6.934;2023-03-01T05:00:23;16.43;;;10.03;;
22963;SDS011;11648;49.306;6.934;2023-03-01T05:02:54;18.20;;;10.47;;
22963;SDS011;11648;49.306;6.934;2023-03-01T05:05:27;16.80;;;10.17;;
22963;SDS011;11648;49.306;6.934;2023-03-01T05:07:59;14.57;;;9.47;;
22963;SDS011;11648;49.306;6.934;2023-03-01T05:10:28;17.37;;;9.70;;
22963;SDS011;11648;49.306;6.934;2023-03-01T05:12:56;18.17;;;10.73;;
22963;SDS011;11648;49.306;6.934;2023-03-01T05:15:24;18.93;;;10.90;;
22963;SDS011;11648;49.306;6.934;2023-03-01T05:17:52;16.07;;;10.23;;
22963;SDS011;11648;49.306;6.934;2023-03-01T05:20:21;16.67;;;10.67;;
22963;SDS011;11648;49.306;6.934;2023-03-01T05:22:51;15.93;;;9.97;;
22963;SDS011;11648;49.306;6.934;2023-03-01T05:25:21;16.33;;;10.37;;
22963;SDS011;11648;49.306;6.934;2023-03-01T05:27:48;16.97;;;10.13;;
22963;SDS011;11648;49.306;6.934;2023-03-01T05:30:15;16.60;;;10.63;;
22963;SDS011;11648;49.306;6.934;2023-03-01T05:32:44;16.63;;;10.80;;
22963;SDS011;11648;49.306;6.934;2023-03-01T05:35:13;18.90;;;10.43;;
22963;SDS011;11648;49.306;6.934;2023-03-01T05:37:42;16.63;;;10.50;;
22963;SDS011;11648;49.306;6.934;2023-03-01T05:40:14;19.00;;;11.33;;
22963;SDS011;11648;49.306;6.934;2023-03-01T05:42:45;20.57;;;11.50;;
22963;SDS011;11648;49.306;6.934;2023-03-01T05:45:14;19.57;;;11.23;;
22963;SDS011;11648;49.306;6.934;2023-03-01T05:47:42;16.87;;;10.23;;
22963;SDS011;11648;49.306;6.934;2023-03-01T05:50:11;18.40;;;10.93;;
22963;SDS011;11648;49.306;6.934;2023-03-01T05:53:08;21.00;;;11.33;;
22963;SDS011;11648;49.306;6.934;2023-03-01T05:55:42;20.03;;;10.80;;
22963;SDS011;11648;49.306;6.934;2023-03-01T05:58:11;18.40;;;10.90;;
22963;SDS011;11648;49.306;6.934;2023-03-01T06:00:41;18.67;;;11.30;;
22963;SDS011;11648;49.306;6.934;2023-03-01T06:03:10;20.13;;;11.87;;
22963;SDS011;11648;49.306;6.934;2023-03-01T06:05:39;18.63;;;11.70;;
22963;SDS011;11648;49.306;6.934;2023-03-01T06:08:07;18.50;;;10.10;;
22963;SDS011;11648;49.306;6.934;2023-03-01T06:10:35;19.00;;;11.67;;
22963;SDS011;11648;49.306;6.934;2023-03-01T06:13:02;25.57;;;12.20;;
22963;SDS011;11648;49.306;6.934;2023-03-01T06:15:29;21.07;;;11.87;;
22963;SDS011;11648;49.306;6.934;2023-03-01T06:17:55;19.37;;;11.47;;
22963;SDS011;11648;49.306;6.934;2023-03-01T06:20:26;18.40;;;11.77;;
22963;SDS011;11648;49.306;6.934;2023-03-01T06:22:54;21.40;;;11.93;;
22963;SDS011;11648;49.306;6.934;2023-03-01T06:25:22;18.50;;;11.70;;
22963;SDS011;11648;49.306;6.934;2023-03-01T06:27:50;18.37;;;11.37;;
22963;SDS011;11648;49.306;6.934;2023-03-01T06:30:19;20.43;;;11.60;;
22963;SDS011;11648;49.306;6.934;2023-03-01T06:32:48;20.13;;;11.77;;
22963;SDS011;11648;49.306;6.934;2023-03-01T06:35:15;20.70;;;12.13;;
22963;SDS011;11648;49.306;6.934;2023-03-01T06:37:45;20.83;;;12.23;;
22963;SDS011;11648;49.306;6.934;2023-03-01T06:40:13;19.27;;;11.83;;
22963;SDS011;11648;49.306;6.934;2023-03-01T06:42:42;20.43;;;12.20;;
22963;SDS011;11648;49.306;6.934;2023-03-01T06:45:13;21.30;;;12.53;;
22963;SDS011;11648;49.306;6.934;2023-03-01T06:47:40;19.03;;;11.40;;
22963;SDS011;11648;49.306;6.934;2023-03-01T06:50:06;19.30;;;11.27;;
22963;SDS011;11648;49.306;6.934;2023-03-01T06:52:34;19.37;;;11.17;;
22963;SDS011;11648;49.306;6.934;2023-03-01T06:55:00;21.30;;;11.60;;
22963;SDS011;11648;49.306;6.934;2023-03-01T06:57:27;18.17;;;11.87;;
22963;SDS011;11648;49.306;6.934;2023-03-01T06:59:54;19.13;;;12.13;;
22963;SDS011;11648;49.306;6.934;2023-03-01T07:02:22;19.83;;;12.63;;
22963;SDS011;11648;49.306;6.934;2023-03-01T07:04:49;20.77;;;12.70;;
22963;SDS011;11648;49.306;6.934;2023-03-01T07:07:17;20.17;;;12.17;;
22963;SDS011;11648;49.306;6.934;2023-03-01T07:09:45;19.07;;;11.10;;
22963;SDS011;11648;49.306;6.934;2023-03-01T07:12:12;18.30;;;11.50;;
22963;SDS011;11648;49.306;6.934;2023-03-01T07:14:38;20.30;;;12.23;;
22963;SDS011;11648;49.306;6.934;2023-03-01T07:17:05;18.17;;;11.60;;
22963;SDS011;11648;49.306;6.934;2023-03-01T07:19:32;19.30;;;11.63;;
22963;SDS011;11648;49.306;6.934;2023-03-01T07:21:59;17.80;;;11.40;;
22963;SDS011;11648;49.306;6.934;2023-03-01T07:24:26;17.90;;;11.23;;
22963;SDS011;11648;49.306;6.934;2023-03-01T07:26:53;21.23;;;11.50;;
22963;SDS011;11648;49.306;6.934;2023-03-01T07:29:19;18.47;;;11.50;;
22963;SDS011;11648;49.306;6.934;2023-03-01T07:31:46;18.03;;;12.10;;
22963;SDS011;11648;49.306;6.934;2023-03-01T07:34:13;18.03;;;11.57;;
22963;SDS011;11648;49.306;6.934;2023-03-01T07:36:40;16.57;;;10.63;;
22963;SDS011;11648;49.306;6.934;2023-03-01T07:39:09;20.00;;;11.60;;
22963;SDS011;11648;49.306;6.934;2023-03-01T07:41:37;15.73;;;11.67;;
22963;SDS011;11648;49.306;6.934;2023-03-01T07:44:04;17.47;;;11.87;;
22963;SDS011;11648;49.306;6.934;2023-03-01T07:46:31;18.73;;;12.50;;
22963;SDS011;11648;49.306;6.934;2023-03-01T07:48:58;17.07;;;11.90;;
22963;SDS011;11648;49.306;6.934;2023-03-01T07:51:25;15.63;;;12.37;;
22963;SDS011;11648;49.306;6.934;2023-03-01T07:53:52;19.13;;;12.73;;
22963;SDS011;11648;49.306;6.934;2023-03-01T07:56:18;15.77;;;12.00;;
22963;SDS011;11648;49.306;6.934;2023-03-01T07:58:46;15.80;;;12.40;;
22963;SDS011;11648;49.306;6.934;2023-03-01T08:01:17;16.20;;;12.57;;
22963;SDS011;11648;49.306;6.934;2023-03-01T08:03:46;16.87;;;12.77;;
22963;SDS011;11648;49.306;6.934;2023-03-01T08:06:13;16.53;;;12.53;;
22963;SDS011;11648;49.306;6.934;2023-03-01T08:08:41;16.80;;;12.57;;
22963;SDS011;11648;49.306;6.934;2023-03-01T08:11:10;15.60;;;12.80;;
22963;SDS011;11648;49.306;6.934;2023-03-01T08:13:38;15.77;;;12.03;;
22963;SDS011;11648;49.306;6.934;2023-03-01T08:16:07;15.23;;;12.67;;
22963;SDS011;11648;49.306;6.934;2023-03-01T08:18:36;15.63;;;12.53;;
22963;SDS011;11648;49.306;6.934;2023-03-01T08:21:04;14.77;;;12.20;;
22963;SDS011;11648;49.306;6.934;2023-03-01T08:23:36;16.70;;;12.97;;
22963;SDS011;11648;49.306;6.934;2023-03-01T08:28:32;15.70;;;13.03;;
22963;SDS011;11648;49.306;6.934;2023-03-01T08:30:59;14.70;;;12.30;;
22963;SDS011;11648;49.306;6.934;2023-03-01T08:33:25;17.53;;;13.07;;
22963;SDS011;11648;49.306;6.934;2023-03-01T08:35:52;18.03;;;12.70;;
22963;SDS011;11648;49.306;6.934;2023-03-01T08:38:19;14.73;;;13.00;;
22963;SDS011;11648;49.306;6.934;2023-03-01T08:40:46;14.97;;;12.90;;
22963;SDS011;11648;49.306;6.934;2023-03-01T08:43:13;16.90;;;12.67;;
22963;SDS011;11648;49.306;6.934;2023-03-01T08:45:39;14.10;;;12.57;;
22963;SDS011;11648;49.306;6.934;2023-03-01T08:48:06;15.13;;;12.60;;
22963;SDS011;11648;49.306;6.934;2023-03-01T08:50:33;16.37;;;12.83;;
22963;SDS011;11648;49.306;6.934;2023-03-01T08:52:59;14.90;;;12.67;;
22963;SDS011;11648;49.306;6.934;2023-03-01T08:55:26;16.00;;;12.43;;
22963;SDS011;11648;49.306;6.934;2023-03-01T08:57:53;16.90;;;13.77;;
22963;SDS011;11648;49.306;6.934;2023-03-01T09:00:19;14.23;;;12.30;;
22963;SDS011;11648;49.306;6.934;2023-03-01T09:02:47;16.10;;;12.87;;
22963;SDS011;11648;49.306;6.934;2023-03-01T09:05:13;13.83;;;12.43;;
22963;SDS011;11648;49.306;6.934;2023-03-01T09:07:40;15.37;;;12.70;;
22963;SDS011;11648;49.306;6.934;2023-03-01T09:10:07;14.87;;;13.37;;
22963;SDS011;11648;49.306;6.934;2023-03-01T09:12:34;16.90;;;13.50;;
22963;SDS011;11648;49.306;6.934;2023-03-01T09:15:01;14.80;;;13.17;;
22963;SDS011;11648;49.306;6.934;2023-03-01T09:17:28;15.57;;;13.97;;
22963;SDS011;11648;49.306;6.934;2023-03-01T09:19:55;14.93;;;13.30;;
22963;SDS011;11648;49.306;6.934;2023-03-01T09:22:22;15.43;;;13.67;;
22963;SDS011;11648;49.306;6.934;2023-03-01T09:24:49;15.03;;;13.23;;
22963;SDS011;11648;49.306;6.934;2023-03-01T09:27:15;15.90;;;14.20;;
22963;SDS011;11648;49.306;6.934;2023-03-01T09:29:45;15.47;;;13.87;;
22963;SDS011;11648;49.306;6.934;2023-03-01T09:32:12;14.77;;;13.27;;
22963;SDS011;11648;49.306;6.934;2023-03-01T09:34:38;14.63;;;13.23;;
22963;SDS011;11648;49.306;6.934;2023-03-01T09:37:24;16.87;;;14.30;;
22963;SDS011;11648;49.306;6.934;2023-03-01T09:39:50;15.97;;;13.83;;
22963;SDS011;11648;49.306;6.934;2023-03-01T09:42:17;15.63;;;14.13;;
22963;SDS011;11648;49.306;6.934;2023-03-01T09:47:15;15.60;;;14.05;;
22963;SDS011;11648;49.306;6.934;2023-03-01T09:49:43;15.77;;;13.10;;
22963;SDS011;11648;49.306;6.934;2023-03-01T09:52:21;17.23;;;14.65;;
22963;SDS011;11648;49.306;6.934;2023-03-01T09:54:54;15.45;;;13.95;;
22963;SDS011;11648;49.306;6.934;2023-03-01T09:57:27;16.27;;;14.57;;
22963;SDS011;11648;49.306;6.934;2023-03-01T10:00:01;16.30;;;14.70;;
22963;SDS011;11648;49.306;6.934;2023-03-01T10:02:51;15.38;;;13.38;;
22963;SDS011;11648;49.306;6.934;2023-03-01T10:10:57;16.05;;;14.38;;
22963;SDS011;11648;49.306;6.934;2023-03-01T10:13:26;15.40;;;13.90;;
22963;SDS011;11648;49.306;6.934;2023-03-01T10:16:21;15.95;;;14.45;;
22963;SDS011;11648;49.306;6.934;2023-03-01T10:18:54;16.35;;;14.75;;
22963;SDS011;11648;49.306;6.934;2023-03-01T10:21:26;15.50;;;14.07;;
22963;SDS011;11648;49.306;6.934;2023-03-01T10:24:32;15.77;;;14.27;;
22963;SDS011;11648;49.306;6.934;2023-03-01T10:26:53;15.90;;;14.30;;
22963;SDS011;11648;49.306;6.934;2023-03-01T10:29:42;15.25;;;13.73;;
22963;SDS011;11648;49.306;6.934;2023-03-01T10:32:17;15.90;;;14.30;;
22963;SDS011;11648;49.306;6.934;2023-03-01T10:34:45;15.60;;;14.18;;
22963;SDS011;11648;49.306;6.934;2023-03-01T10:37:13;15.55;;;14.02;;
22963;SDS011;11648;49.306;6.934;2023-03-01T10:39:58;15.35;;;13.85;;
22963;SDS011;11648;49.306;6.934;2023-03-01T10:42:47;14.57;;;13.18;;
22963;SDS011;11648;49.306;6.934;2023-03-01T10:48:16;14.80;;;13.40;;
22963;SDS011;11648;49.306;6.934;2023-03-01T10:50:47;15.27;;;13.77;;
22963;SDS011;11648;49.306;6.934;2023-03-01T10:53:28;16.90;;;14.23;;
22963;SDS011;11648;49.306;6.934;2023-03-01T10:56:00;16.48;;;14.80;;
22963;SDS011;11648;49.306;6.934;2023-03-01T10:58:30;17.20;;;14.40;;
22963;SDS011;11648;49.306;6.934;2023-03-01T11:00:59;15.80;;;14.20;;
22963;SDS011;11648;49.306;6.934;2023-03-01T11:03:28;15.32;;;13.70;;
22963;SDS011;11648;49.306;6.934;2023-03-01T11:06:00;15.27;;;13.68;;
22963;SDS011;11648;49.306;6.934;2023-03-01T11:08:37;15.07;;;13.68;;
22963;SDS011;11648;49.306;6.934;2023-03-01T11:13:56;15.40;;;13.93;;
22963;SDS011;11648;49.306;6.934;2023-03-01T11:18:58;15.52;;;14.02;;
22963;SDS011;11648;49.306;6.934;2023-03-01T11:21:28;15.05;;;13.55;;
22963;SDS011;11648;49.306;6.934;2023-03-01T11:23:59;15.75;;;14.02;;
22963;SDS011;11648;49.306;6.934;2023-03-01T11:26:28;15.45;;;13.85;;
22963;SDS011;11648;49.306;6.934;2023-03-01T11:28:58;15.43;;;14.02;;
22963;SDS011;11648;49.306;6.934;2023-03-01T11:31:30;14.65;;;13.27;;
22963;SDS011;11648;49.306;6.934;2023-03-01T11:34:14;15.73;;;14.20;;
22963;SDS011;11648;49.306;6.934;2023-03-01T11:36:51;15.90;;;14.30;;
22963;SDS011;11648;49.306;6.934;2023-03-01T11:42:15;14.93;;;13.43;;
22963;SDS011;11648;49.306;6.934;2023-03-01T11:44:47;15.65;;;14.07;;
22963;SDS011;11648;49.306;6.934;2023-03-01T11:50:15;15.95;;;14.45;;
22963;SDS011;11648;49.306;6.934;2023-03-01T11:53:11;16.35;;;14.75;;
22963;SDS011;11648;49.306;6.934;2023-03-01T12:14:04;16.85;;;14.00;;
22963;SDS011;11648;49.306;6.934;2023-03-01T12:19:42;14.93;;;13.52;;
22963;SDS011;11648;49.306;6.934;2023-03-01T12:22:33;16.63;;;14.35;;
22963;SDS011;11648;49.306;6.934;2023-03-01T12:25:14;17.27;;;14.40;;
22963;SDS011;11648;49.306;6.934;2023-03-01T12:28:01;16.25;;;14.57;;
22963;SDS011;11648;49.306;6.934;2023-03-01T12:33:28;15.80;;;14.18;;
22963;SDS011;11648;49.306;6.934;2023-03-01T12:36:15;16.27;;;14.57;;
22963;SDS011;11648;49.306;6.934;2023-03-01T12:38:59;17.03;;;15.30;;
22963;SDS011;11648;49.306;6.934;2023-03-01T12:49:43;16.07;;;13.90;;
22963;SDS011;11648;49.306;6.934;2023-03-01T12:52:16;17.27;;;14.10;;
22963;SDS011;11648;49.306;6.934;2023-03-01T12:54:51;17.13;;;14.60;;
22963;SDS011;11648;49.306;6.934;2023-03-01T12:57:34;17.63;;;13.67;;
22963;SDS011;11648;49.306;6.934;2023-03-01T13:00:18;18.60;;;14.00;;
22963;SDS011;11648;49.306;6.934;2023-03-01T13:03:05;17.13;;;13.07;;
22963;SDS011;11648;49.306;6.934;2023-03-01T13:11:41;18.10;;;12.70;;
22963;SDS011;11648;49.306;6.934;2023-03-01T13:16:51;17.90;;;12.90;;
22963;SDS011;11648;49.306;6.934;2023-03-01T13:19:23;17.83;;;12.57;;
22963;SDS011;11648;49.306;6.934;2023-03-01T13:21:52;17.67;;;12.90;;
22963;SDS011;11648;49.306;6.934;2023-03-01T13:24:35;17.10;;;12.90;;
22963;SDS011;11648;49.306;6.934;2023-03-01T13:29:45;17.93;;;13.17;;
22963;SDS011;11648;49.306;6.934;2023-03-01T13:32:32;17.77;;;13.23;;
22963;SDS011;11648;49.306;6.934;2023-03-01T13:37:46;19.03;;;13.20;;
22963;SDS011;11648;49.306;6.934;2023-03-01T13:42:43;20.27;;;12.20;;
22963;SDS011;11648;49.306;6.934;2023-03-01T13:45:36;16.00;;;11.60;;
22963;SDS011;11648;49.306;6.934;2023-03-01T13:48:16;17.23;;;12.27;;
22963;SDS011;11648;49.306;6.934;2023-03-01T13:50:50;14.93;;;11.77;;
22963;SDS011;11648;49.306;6.934;2023-03-01T13:53:24;15.90;;;11.77;;
22963;SDS011;11648;49.306;6.934;2023-03-01T13:55:57;16.17;;;11.43;;
22963;SDS011;11648;49.306;6.934;2023-03-01T13:58:28;15.40;;;10.83;;
22963;SDS011;11648;49.306;6.934;2023-03-01T14:00:57;15.80;;;11.50;;
22963;SDS011;11648;49.306;6.934;2023-03-01T14:03:45;20.67;;;12.50;;
22963;SDS011;11648;49.306;6.934;2023-03-01T14:06:12;16.50;;;11.77;;
22963;SDS011;11648;49.306;6.934;2023-03-01T14:08:46;15.97;;;11.53;;
22963;SDS011;11648;49.306;6.934;2023-03-01T14:19:55;15.53;;;11.17;;
22963;SDS011;11648;49.306;6.934;2023-03-01T14:22:28;15.73;;;11.43;;
22963;SDS011;11648;49.306;6.934;2023-03-01T14:25:01;16.37;;;12.20;;
22963;SDS011;11648;49.306;6.934;2023-03-01T14:27:38;16.70;;;11.83;;
22963;SDS011;11648;49.306;6.934;2023-03-01T14:30:12;16.00;;;11.30;;
22963;SDS011;11648;49.306;6.934;2023-03-01T14:32:52;17.30;;;11.70;;
22963;SDS011;11648;49.306;6.934;2023-03-01T14:35:22;16.17;;;11.47;;
22963;SDS011;11648;49.306;6.934;2023-03-01T14:37:57;16.43;;;11.87;;
22963;SDS011;11648;49.306;6.934;2023-03-01T14:40:25;16.63;;;11.70;;
22963;SDS011;11648;49.306;6.934;2023-03-01T14:42:55;16.97;;;11.50;;
22963;SDS011;11648;49.306;6.934;2023-03-01T14:45:25;19.70;;;11.83;;
22963;SDS011;11648;49.306;6.934;2023-03-01T14:47:54;18.20;;;12.33;;
22963;SDS011;11648;49.306;6.934;2023-03-01T14:50:26;16.70;;;11.43;;
22963;SDS011;11648;49.306;6.934;2023-03-01T14:53:04;17.30;;;11.37;;
22963;SDS011;11648;49.306;6.934;2023-03-01T14:55:35;17.33;;;11.57;;
22963;SDS011;11648;49.306;6.934;2023-03-01T14:58:05;16.03;;;11.53;;
22963;SDS011;11648;49.306;6.934;2023-03-01T15:00:35;15.27;;;11.37;;
22963;SDS011;11648;49.306;6.934;2023-03-01T15:03:06;15.93;;;11.10;;
22963;SDS011;11648;49.306;6.934;2023-03-01T15:05:40;15.93;;;11.07;;
22963;SDS011;11648;49.306;6.934;2023-03-01T15:08:16;13.97;;;10.60;;
22963;SDS011;11648;49.306;6.934;2023-03-01T15:10:55;14.20;;;10.87;;
22963;SDS011;11648;49.306;6.934;2023-03-01T15:13:25;15.70;;;10.63;;
22963;SDS011;11648;49.306;6.934;2023-03-01T15:18:31;16.57;;;11.97;;
22963;SDS011;11648;49.306;6.934;2023-03-01T15:21:06;17.00;;;11.50;;
22963;SDS011;11648;49.306;6.934;2023-03-01T15:23:34;16.37;;;12.10;;
22963;SDS011;11648;49.306;6.934;2023-03-01T15:26:03;15.13;;;11.50;;
22963;SDS011;11648;49.306;6.934;2023-03-01T15:28:30;15.53;;;11.40;;
22963;SDS011;11648;49.306;6.934;2023-03-01T15:33:50;15.50;;;10.87;;
22963;SDS011;11648;49.306;6.934;2023-03-01T15:36:38;16.03;;;10.93;;
22963;SDS011;11648;49.306;6.934;2023-03-01T15:39:25;15.27;;;11.50;;
22963;SDS011;11648;49.306;6.934;2023-03-01T15:41:57;14.67;;;11.00;;
22963;SDS011;11648;49.306;6.934;2023-03-01T15:44:25;14.70;;;10.27;;
22963;SDS011;11648;49.306;6.934;2023-03-01T15:47:22;15.83;;;10.87;;
22963;SDS011;11648;49.306;6.934;2023-03-01T15:49:51;15.57;;;10.30;;
22963;SDS011;11648;49.306;6.934;2023-03-01T15:52:25;15.73;;;10.60;;
22963;SDS011;11648;49.306;6.934;2023-03-01T15:54:56;15.43;;;10.70;;
22963;SDS011;11648;49.306;6.934;2023-03-01T15:57:25;14.47;;;9.83;;
22963;SDS011;11648;49.306;6.934;2023-03-01T15:59:52;15.57;;;10.00;;
22963;SDS011;11648;49.306;6.934;2023-03-01T16:02:19;13.90;;;9.20;;
22963;SDS011;11648;49.306;6.934;2023-03-01T16:04:47;15.40;;;9.23;;
22963;SDS011;11648;49.306;6.934;2023-03-01T16:07:17;11.47;;;7.80;;
22963;SDS011;11648;49.306;6.934;2023-03-01T16:09:43;13.77;;;8.67;;
22963;SDS011;11648;49.306;6.934;2023-03-01T16:12:14;13.97;;;9.47;;
22963;SDS011;11648;49.306;6.934;2023-03-01T16:14:42;12.90;;;9.23;;
22963;SDS011;11648;49.306;6.934;2023-03-01T16:17:09;13.97;;;8.97;;
22963;SDS011;11648;49.306;6.934;2023-03-01T16:19:37;13.70;;;8.53;;
22963;SDS011;11648;49.306;6.934;2023-03-01T16:22:04;13.17;;;8.80;;
22963;SDS011;11648;49.306;6.934;2023-03-01T16:24:31;13.87;;;8.57;;